sensor_id;sensor_type;location;lat;lon;timestamp;pressure;altitude;pressure_sealevel;temperature;humidity
70902;BME280;58548;47.210;8.618;2024-02-28T00:00:52;93885.56;;;17.05;34.32
70902;BME280;58548;47.210;8.618;2024-02-28T00:03:21;93883.81;;;17.11;35.23
70902;BME280;58548;47.210;8.618;2024-02-28T00:05:52;93840.16;;;16.91;34.60
70902;BME280;58548;47.210;8.618;2024-02-28T00:08:20;93885.75;;;17.15;34.75
70902;BME280;58548;47.210;8.618;2024-02-28T00:10:48;93875.44;;;17.14;34.66
70902;BME280;58548;47.210;8.618;2024-02-28T00:13:15;93881.91;;;17.23;34.29
70902;BME280;58548;47.210;8.618;2024-02-28T00:15:42;93889.28;;;17.21;34.30
70902;BME280;58548;47.210;8.618;2024-02-28T00:18:12;93881.25;;;17.16;35.08
70902;BME280;58548;47.210;8.618;2024-02-28T00:20:38;93882.06;;;17.16;34.87
70902;BME280;58548;47.210;8.618;2024-02-28T00:23:05;93869.84;;;16.98;35.38
70902;BME280;58548;47.210;8.618;2024-02-28T00:25:31;93884.28;;;17.08;35.22
70902;BME280;58548;47.210;8.618;2024-02-28T00:27:58;93866.63;;;16.96;35.15
70902;BME280;58548;47.210;8.618;2024-02-28T00:30:24;93871.13;;;16.96;35.21
70902;BME280;58548;47.210;8.618;2024-02-28T00:32:57;93889.88;;;17.11;35.60
70902;BME280;58548;47.210;8.618;2024-02-28T00:35:25;93876.03;;;16.92;35.03
70902;BME280;58548;47.210;8.618;2024-02-28T00:37:51;93889.69;;;17.01;35.24
70902;BME280;58548;47.210;8.618;2024-02-28T00:40:17;93887.75;;;16.96;35.15
70902;BME280;58548;47.210;8.618;2024-02-28T00:42:45;93899.53;;;17.06;35.06
70902;BME280;58548;47.210;8.618;2024-02-28T00:45:11;93876.03;;;16.92;35.00
70902;BME280;58548;47.210;8.618;2024-02-28T00:47:37;93908.13;;;17.13;35.46
70902;BME280;58548;47.210;8.618;2024-02-28T00:50:04;93895.75;;;17.01;35.05
70902;BME280;58548;47.210;8.618;2024-02-28T00:52:33;93888.78;;;16.95;35.23
70902;BME280;58548;47.210;8.618;2024-02-28T00:54:59;93873.31;;;16.87;34.95
70902;BME280;58548;47.210;8.618;2024-02-28T00:57:25;93887.38;;;16.93;34.71
70902;BME280;58548;47.210;8.618;2024-02-28T00:59:53;93904.25;;;17.03;35.23
70902;BME280;58548;47.210;8.618;2024-02-28T01:02:20;93876.66;;;16.82;35.13
70902;BME280;58548;47.210;8.618;2024-02-28T01:04:48;93908.94;;;17.01;34.98
70902;BME280;58548;47.210;8.618;2024-02-28T01:07:14;93875.84;;;16.82;34.98
70902;BME280;58548;47.210;8.618;2024-02-28T01:09:40;93888.66;;;16.90;35.42
70902;BME280;58548;47.210;8.618;2024-02-28T01:12:08;93904.25;;;17.03;34.78
70902;BME280;58548;47.210;8.618;2024-02-28T01:14:34;93890.28;;;16.91;34.93
70902;BME280;58548;47.210;8.618;2024-02-28T01:17:04;93897.25;;;16.97;34.84
70902;BME280;58548;47.210;8.618;2024-02-28T01:19:30;93914.78;;;17.03;35.45
70902;BME280;58548;47.210;8.618;2024-02-28T01:21:57;93910.34;;;17.04;35.01
70902;BME280;58548;47.210;8.618;2024-02-28T01:24:23;93911.59;;;17.01;35.21
70902;BME280;58548;47.210;8.618;2024-02-28T01:26:49;93888.41;;;16.92;35.31
70902;BME280;58548;47.210;8.618;2024-02-28T01:29:20;93898.28;;;16.96;35.42
70902;BME280;58548;47.210;8.618;2024-02-28T01:31:46;93911.13;;;17.05;34.94
70902;BME280;58548;47.210;8.618;2024-02-28T01:34:13;93889.13;;;16.87;35.35
70902;BME280;58548;47.210;8.618;2024-02-28T01:36:40;93900.13;;;16.96;35.31
70902;BME280;58548;47.210;8.618;2024-02-28T01:39:06;93825.34;;;16.49;35.68
70902;BME280;58548;47.210;8.618;2024-02-28T01:41:32;93904.72;;;17.00;35.11
70902;BME280;58548;47.210;8.618;2024-02-28T01:44:00;93899.44;;;17.00;35.43
70902;BME280;58548;47.210;8.618;2024-02-28T01:46:28;93918.34;;;17.09;35.39
70902;BME280;58548;47.210;8.618;2024-02-28T01:48:55;93910.66;;;17.08;35.56
70902;BME280;58548;47.210;8.618;2024-02-28T01:51:24;93897.25;;;16.97;35.65
70902;BME280;58548;47.210;8.618;2024-02-28T01:53:52;93900.56;;;17.05;35.42
70902;BME280;58548;47.210;8.618;2024-02-28T01:56:23;93920.28;;;17.14;35.19
70902;BME280;58548;47.210;8.618;2024-02-28T01:58:51;93912.16;;;17.03;35.73
70902;BME280;58548;47.210;8.618;2024-02-28T02:01:20;93906.09;;;16.91;35.19
70902;BME280;58548;47.210;8.618;2024-02-28T02:03:48;93911.25;;;16.98;35.42
70902;BME280;58548;47.210;8.618;2024-02-28T02:06:19;93917.91;;;17.00;35.14
70902;BME280;58548;47.210;8.618;2024-02-28T02:08:46;93923.28;;;17.06;35.61
70902;BME280;58548;47.210;8.618;2024-02-28T02:11:15;93915.25;;;17.00;35.12
70902;BME280;58548;47.210;8.618;2024-02-28T02:13:51;93929.03;;;17.02;35.39
70902;BME280;58548;47.210;8.618;2024-02-28T02:16:21;93905.84;;;16.93;35.47
70902;BME280;58548;47.210;8.618;2024-02-28T02:18:53;93930.63;;;17.03;35.27
70902;BME280;58548;47.210;8.618;2024-02-28T02:21:23;93915.63;;;17.04;35.20
70902;BME280;58548;47.210;8.618;2024-02-28T02:23:50;93884.63;;;16.87;35.33
70902;BME280;58548;47.210;8.618;2024-02-28T02:26:16;93915.94;;;17.08;35.55
70902;BME280;58548;47.210;8.618;2024-02-28T02:28:44;93898.66;;;17.00;35.36
70902;BME280;58548;47.210;8.618;2024-02-28T02:31:13;93893.00;;;16.96;35.54
70902;BME280;58548;47.210;8.618;2024-02-28T02:33:44;93898.97;;;17.03;35.56
70902;BME280;58548;47.210;8.618;2024-02-28T02:36:10;93899.78;;;17.04;35.32
70902;BME280;58548;47.210;8.618;2024-02-28T02:38:36;93905.38;;;17.08;35.53
70902;BME280;58548;47.210;8.618;2024-02-28T02:41:02;93895.19;;;16.99;35.20
70902;BME280;58548;47.210;8.618;2024-02-28T02:43:30;93889.69;;;17.01;35.30
70902;BME280;58548;47.210;8.618;2024-02-28T02:45:56;93896.13;;;17.05;35.60
70902;BME280;58548;47.210;8.618;2024-02-28T02:48:24;93908.91;;;17.13;35.83
70902;BME280;58548;47.210;8.618;2024-02-28T02:50:50;93823.84;;;16.65;35.33
70902;BME280;58548;47.210;8.618;2024-02-28T02:53:21;93904.91;;;17.11;35.78
70902;BME280;58548;47.210;8.618;2024-02-28T02:55:49;93912.38;;;17.14;35.43
70902;BME280;58548;47.210;8.618;2024-02-28T02:58:18;93916.50;;;17.10;35.81
70902;BME280;58548;47.210;8.618;2024-02-28T03:00:44;93891.31;;;16.90;35.78
70902;BME280;58548;47.210;8.618;2024-02-28T03:03:09;93933.69;;;17.12;35.95
70902;BME280;58548;47.210;8.618;2024-02-28T03:05:35;93919.38;;;16.96;35.20
70902;BME280;58548;47.210;8.618;2024-02-28T03:08:01;93946.69;;;17.14;35.79
70902;BME280;58548;47.210;8.618;2024-02-28T03:10:28;93933.50;;;17.02;35.92
70902;BME280;58548;47.210;8.618;2024-02-28T03:12:54;93940.72;;;17.07;35.62
70902;BME280;58548;47.210;8.618;2024-02-28T03:15:21;93924.31;;;17.05;35.92
70902;BME280;58548;47.210;8.618;2024-02-28T03:17:48;93945.06;;;17.13;35.67
70902;BME280;58548;47.210;8.618;2024-02-28T03:20:16;93929.84;;;17.03;35.85
70902;BME280;58548;47.210;8.618;2024-02-28T03:22:42;93924.22;;;16.99;35.84
70902;BME280;58548;47.210;8.618;2024-02-28T03:25:09;93909.53;;;16.92;35.83
70902;BME280;58548;47.210;8.618;2024-02-28T03:27:37;93952.41;;;17.11;35.70
70902;BME280;58548;47.210;8.618;2024-02-28T03:30:06;93915.50;;;16.87;35.95
70902;BME280;58548;47.210;8.618;2024-02-28T03:32:37;93957.56;;;17.17;36.07
70902;BME280;58548;47.210;8.618;2024-02-28T03:35:05;93962.59;;;17.19;35.51
70902;BME280;58548;47.210;8.618;2024-02-28T03:37:34;93965.47;;;17.17;35.67
70902;BME280;58548;47.210;8.618;2024-02-28T03:40:00;93957.78;;;17.16;35.81
70902;BME280;58548;47.210;8.618;2024-02-28T03:42:26;93970.50;;;17.19;35.27
70902;BME280;58548;47.210;8.618;2024-02-28T03:44:54;93942.66;;;16.99;35.43
70902;BME280;58548;47.210;8.618;2024-02-28T03:47:20;93946.44;;;17.03;35.36
70902;BME280;58548;47.210;8.618;2024-02-28T03:49:46;93956.41;;;17.13;35.36
70902;BME280;58548;47.210;8.618;2024-02-28T03:52:12;93948.53;;;17.01;35.67
70902;BME280;58548;47.210;8.618;2024-02-28T03:54:42;93949.09;;;17.03;35.61
70902;BME280;58548;47.210;8.618;2024-02-28T03:57:09;93937.50;;;16.93;35.07
70902;BME280;58548;47.210;8.618;2024-02-28T03:59:36;93950.25;;;16.96;35.22
70902;BME280;58548;47.210;8.618;2024-02-28T04:02:04;93988.41;;;17.17;35.19
70902;BME280;58548;47.210;8.618;2024-02-28T04:04:31;93964.81;;;16.98;35.63
70902;BME280;58548;47.210;8.618;2024-02-28T04:06:57;93992.88;;;17.16;35.77
70902;BME280;58548;47.210;8.618;2024-02-28T04:09:23;93988.78;;;17.09;36.18
70902;BME280;58548;47.210;8.618;2024-02-28T04:11:49;93981.66;;;17.09;35.89
70902;BME280;58548;47.210;8.618;2024-02-28T04:14:17;93983.63;;;17.14;35.44
70902;BME280;58548;47.210;8.618;2024-02-28T04:17:01;93975.69;;;17.14;35.50
70902;BME280;58548;47.210;8.618;2024-02-28T04:19:45;94000.00;;;17.16;36.00
70902;BME280;58548;47.210;8.618;2024-02-28T04:22:20;94002.16;;;17.19;35.92
70902;BME280;58548;47.210;8.618;2024-02-28T04:24:49;93983.16;;;16.93;35.54
70902;BME280;58548;47.210;8.618;2024-02-28T04:27:19;93985.44;;;17.01;35.14
70902;BME280;58548;47.210;8.618;2024-02-28T04:29:45;93989.00;;;16.83;36.04
70902;BME280;58548;47.210;8.618;2024-02-28T04:32:13;93984.06;;;16.87;35.89
70902;BME280;58548;47.210;8.618;2024-02-28T04:34:39;94001.38;;;16.95;36.06
70902;BME280;58548;47.210;8.618;2024-02-28T04:37:07;93996.91;;;16.95;35.59
70902;BME280;58548;47.210;8.618;2024-02-28T04:39:42;93990.03;;;16.94;35.77
70902;BME280;58548;47.210;8.618;2024-02-28T04:42:08;93990.81;;;16.95;35.79
70902;BME280;58548;47.210;8.618;2024-02-28T04:44:36;94004.94;;;17.00;35.53
70902;BME280;58548;47.210;8.618;2024-02-28T04:47:04;93993.00;;;16.86;35.74
70902;BME280;58548;47.210;8.618;2024-02-28T04:49:30;94012.97;;;17.06;35.52
70902;BME280;58548;47.210;8.618;2024-02-28T04:51:56;93987.50;;;16.87;35.34
70902;BME280;58548;47.210;8.618;2024-02-28T04:54:23;93959.31;;;16.64;35.82
70902;BME280;58548;47.210;8.618;2024-02-28T04:56:51;93990.38;;;16.86;35.60
70902;BME280;58548;47.210;8.618;2024-02-28T04:59:19;94019.53;;;17.03;35.97
70902;BME280;58548;47.210;8.618;2024-02-28T05:01:47;94010.22;;;17.00;35.83
70902;BME280;58548;47.210;8.618;2024-02-28T05:04:14;94022.63;;;17.12;36.02
70902;BME280;58548;47.210;8.618;2024-02-28T05:06:43;94014.00;;;16.93;35.92
70902;BME280;58548;47.210;8.618;2024-02-28T05:09:09;94022.38;;;17.01;35.67
70902;BME280;58548;47.210;8.618;2024-02-28T05:11:37;94033.16;;;16.88;36.29
70902;BME280;58548;47.210;8.618;2024-02-28T05:14:05;94029.81;;;16.93;35.95
70902;BME280;58548;47.210;8.618;2024-02-28T05:16:31;94003.31;;;16.76;36.04
70902;BME280;58548;47.210;8.618;2024-02-28T05:18:58;94038.66;;;16.98;35.90
70902;BME280;58548;47.210;8.618;2024-02-28T05:21:26;94030.63;;;16.93;36.07
70902;BME280;58548;47.210;8.618;2024-02-28T05:23:54;94046.69;;;17.03;35.62
70902;BME280;58548;47.210;8.618;2024-02-28T05:26:20;94039.69;;;16.97;36.17
70902;BME280;58548;47.210;8.618;2024-02-28T05:28:46;94056.34;;;17.10;35.86
70902;BME280;58548;47.210;8.618;2024-02-28T05:31:26;94055.88;;;17.13;35.50
70902;BME280;58548;47.210;8.618;2024-02-28T05:33:54;94046.13;;;17.01;35.57
70902;BME280;58548;47.210;8.618;2024-02-28T05:36:24;94061.03;;;17.08;35.76
70902;BME280;58548;47.210;8.618;2024-02-28T05:38:52;94060.94;;;17.02;35.56
70902;BME280;58548;47.210;8.618;2024-02-28T05:41:18;94047.63;;;16.97;35.73
70902;BME280;58548;47.210;8.618;2024-02-28T05:43:44;94079.06;;;17.11;35.52
70902;BME280;58548;47.210;8.618;2024-02-28T05:46:15;94062.53;;;17.03;36.09
70902;BME280;58548;47.210;8.618;2024-02-28T05:48:45;94059.69;;;17.05;35.54
70902;BME280;58548;47.210;8.618;2024-02-28T05:51:15;94089.50;;;17.17;35.48
70902;BME280;58548;47.210;8.618;2024-02-28T05:53:43;94022.38;;;16.78;35.56
70902;BME280;58548;47.210;8.618;2024-02-28T05:56:12;94058.03;;;16.92;35.63
70902;BME280;58548;47.210;8.618;2024-02-28T05:58:46;94095.22;;;17.14;35.53
70902;BME280;58548;47.210;8.618;2024-02-28T06:01:16;94096.81;;;17.03;35.70
70902;BME280;58548;47.210;8.618;2024-02-28T06:03:45;94099.47;;;17.03;35.36
70902;BME280;58548;47.210;8.618;2024-02-28T06:06:11;94088.22;;;16.96;35.80
70902;BME280;58548;47.210;8.618;2024-02-28T06:08:40;94095.03;;;16.73;36.00
70902;BME280;58548;47.210;8.618;2024-02-28T06:11:09;94097.81;;;16.79;36.15
70902;BME280;58548;47.210;8.618;2024-02-28T06:13:36;94123.72;;;16.82;35.81
70902;BME280;58548;47.210;8.618;2024-02-28T06:16:02;94129.00;;;16.82;36.08
70902;BME280;58548;47.210;8.618;2024-02-28T06:18:31;94106.06;;;16.70;36.23
70902;BME280;58548;47.210;8.618;2024-02-28T06:20:59;94132.47;;;16.94;35.59
70902;BME280;58548;47.210;8.618;2024-02-28T06:23:28;94120.88;;;16.83;36.35
70902;BME280;58548;47.210;8.618;2024-02-28T06:25:54;94136.22;;;16.86;36.29
70902;BME280;58548;47.210;8.618;2024-02-28T06:28:20;94146.00;;;16.86;36.20
70902;BME280;58548;47.210;8.618;2024-02-28T06:30:48;94113.13;;;16.58;35.96
70902;BME280;58548;47.210;8.618;2024-02-28T06:33:14;94150.56;;;16.79;35.45
70902;BME280;58548;47.210;8.618;2024-02-28T06:35:40;94158.13;;;16.75;35.67
70902;BME280;58548;47.210;8.618;2024-02-28T06:38:06;94124.13;;;16.55;35.54
70902;BME280;58548;47.210;8.618;2024-02-28T06:40:33;94165.13;;;16.81;35.67
70902;BME280;58548;47.210;8.618;2024-02-28T06:43:04;94170.06;;;16.89;35.00
70902;BME280;58548;47.210;8.618;2024-02-28T06:45:32;94148.38;;;16.76;35.48
70902;BME280;58548;47.210;8.618;2024-02-28T06:47:59;94155.25;;;16.77;35.57
70902;BME280;58548;47.210;8.618;2024-02-28T06:50:25;94180.47;;;16.84;35.23
70902;BME280;58548;47.210;8.618;2024-02-28T06:52:53;94157.50;;;16.61;35.65
70902;BME280;58548;47.210;8.618;2024-02-28T06:55:19;94155.09;;;16.60;35.90
70902;BME280;58548;47.210;8.618;2024-02-28T06:57:49;94084.47;;;16.07;35.96
70902;BME280;58548;47.210;8.618;2024-02-28T07:00:20;94165.41;;;16.61;36.38
70902;BME280;58548;47.210;8.618;2024-02-28T07:02:46;94182.44;;;16.77;35.83
70902;BME280;58548;47.210;8.618;2024-02-28T07:05:16;94185.88;;;16.78;36.29
70902;BME280;58548;47.210;8.618;2024-02-28T07:07:41;94173.19;;;16.56;36.10
70902;BME280;58548;47.210;8.618;2024-02-28T07:10:12;94183.56;;;16.69;36.00
70902;BME280;58548;47.210;8.618;2024-02-28T07:12:39;94164.69;;;16.54;36.23
70902;BME280;58548;47.210;8.618;2024-02-28T07:15:07;94164.38;;;16.62;35.70
70902;BME280;58548;47.210;8.618;2024-02-28T07:17:33;94193.19;;;16.76;35.97
70902;BME280;58548;47.210;8.618;2024-02-28T07:19:59;94193.44;;;16.74;35.68
70902;BME280;58548;47.210;8.618;2024-02-28T07:22:25;94207.91;;;16.83;35.65
70902;BME280;58548;47.210;8.618;2024-02-28T07:24:51;94204.91;;;16.80;35.54
70902;BME280;58548;47.210;8.618;2024-02-28T07:27:22;94214.78;;;16.84;35.68
70902;BME280;58548;47.210;8.618;2024-02-28T07:29:50;94208.91;;;16.70;35.07
70902;BME280;58548;47.210;8.618;2024-02-28T07:32:16;94202.59;;;16.71;35.41
70902;BME280;58548;47.210;8.618;2024-02-28T07:34:42;94213.41;;;16.82;35.91
70902;BME280;58548;47.210;8.618;2024-02-28T07:37:08;94212.22;;;16.78;35.72
70902;BME280;58548;47.210;8.618;2024-02-28T07:39:45;94210.28;;;16.73;35.63
70902;BME280;58548;47.210;8.618;2024-02-28T07:42:13;94201.94;;;16.76;34.92
70902;BME280;58548;47.210;8.618;2024-02-28T07:44:39;94228.34;;;16.88;35.37
70902;BME280;58548;47.210;8.618;2024-02-28T07:47:07;94202.13;;;16.74;35.02
70902;BME280;58548;47.210;8.618;2024-02-28T07:49:35;94196.66;;;16.76;35.09
70902;BME280;58548;47.210;8.618;2024-02-28T07:52:03;94217.78;;;16.88;34.74
70902;BME280;58548;47.210;8.618;2024-02-28T07:54:31;94210.19;;;16.80;34.93
70902;BME280;58548;47.210;8.618;2024-02-28T07:56:57;94225.47;;;16.89;34.39
70902;BME280;58548;47.210;8.618;2024-02-28T07:59:23;94224.34;;;16.97;34.21
70902;BME280;58548;47.210;8.618;2024-02-28T08:01:49;94228.59;;;16.98;34.20
70902;BME280;58548;47.210;8.618;2024-02-28T08:04:19;94224.22;;;16.92;34.49
70902;BME280;58548;47.210;8.618;2024-02-28T08:06:48;94183.28;;;16.59;34.44
70902;BME280;58548;47.210;8.618;2024-02-28T08:09:16;94214.28;;;16.76;34.62
70902;BME280;58548;47.210;8.618;2024-02-28T08:11:44;94239.75;;;17.00;34.71
70902;BME280;58548;47.210;8.618;2024-02-28T08:14:12;94196.06;;;16.74;34.25
70902;BME280;58548;47.210;8.618;2024-02-28T08:16:41;94239.16;;;16.98;34.01
70902;BME280;58548;47.210;8.618;2024-02-28T08:19:07;94236.97;;;16.95;34.48
70902;BME280;58548;47.210;8.618;2024-02-28T08:21:35;94239.59;;;16.95;34.39
70902;BME280;58548;47.210;8.618;2024-02-28T08:24:01;94251.22;;;17.06;33.65
70902;BME280;58548;47.210;8.618;2024-02-28T08:26:31;94238.00;;;16.94;34.10
70902;BME280;58548;47.210;8.618;2024-02-28T08:28:59;94229.13;;;16.88;33.66
70902;BME280;58548;47.210;8.618;2024-02-28T08:31:25;94216.03;;;16.82;33.83
70902;BME280;58548;47.210;8.618;2024-02-28T08:33:52;94258.56;;;17.04;33.58
70902;BME280;58548;47.210;8.618;2024-02-28T08:36:21;94252.34;;;16.98;34.00
70902;BME280;58548;47.210;8.618;2024-02-28T08:38:47;94252.47;;;17.03;33.54
70902;BME280;58548;47.210;8.618;2024-02-28T08:41:13;94236.75;;;16.97;33.63
70902;BME280;58548;47.210;8.618;2024-02-28T08:43:41;94264.53;;;17.11;33.34
70902;BME280;58548;47.210;8.618;2024-02-28T08:46:07;94261.13;;;17.11;33.71
70902;BME280;58548;47.210;8.618;2024-02-28T08:48:33;94268.44;;;17.09;33.67
70902;BME280;58548;47.210;8.618;2024-02-28T08:51:04;94257.47;;;16.93;33.09
70902;BME280;58548;47.210;8.618;2024-02-28T08:53:35;94268.56;;;17.02;33.10
70902;BME280;58548;47.210;8.618;2024-02-28T08:56:08;94280.03;;;17.08;32.89
70902;BME280;58548;47.210;8.618;2024-02-28T08:58:38;94242.41;;;16.82;32.94
70902;BME280;58548;47.210;8.618;2024-02-28T09:01:06;94265.41;;;16.93;32.92
70902;BME280;58548;47.210;8.618;2024-02-28T09:03:32;94252.97;;;16.82;33.28
70902;BME280;58548;47.210;8.618;2024-02-28T09:05:58;94290.25;;;17.04;33.08
70902;BME280;58548;47.210;8.618;2024-02-28T09:08:24;94266.88;;;16.89;33.42
70902;BME280;58548;47.210;8.618;2024-02-28T09:10:50;94290.31;;;16.97;33.45
70902;BME280;58548;47.210;8.618;2024-02-28T09:13:16;94273.16;;;16.88;33.66
70902;BME280;58548;47.210;8.618;2024-02-28T09:15:43;94293.09;;;17.02;33.43
70902;BME280;58548;47.210;8.618;2024-02-28T09:18:09;94275.00;;;16.87;32.68
70902;BME280;58548;47.210;8.618;2024-02-28T09:20:37;94278.00;;;16.91;33.21
70902;BME280;58548;47.210;8.618;2024-02-28T09:23:03;94292.63;;;17.06;32.96
70902;BME280;58548;47.210;8.618;2024-02-28T09:25:31;94288.25;;;16.99;33.04
70902;BME280;58548;47.210;8.618;2024-02-28T09:27:58;94300.69;;;17.11;33.01
70902;BME280;58548;47.210;8.618;2024-02-28T09:30:28;94303.56;;;17.21;32.86
70902;BME280;58548;47.210;8.618;2024-02-28T09:32:54;94303.22;;;17.17;32.57
70902;BME280;58548;47.210;8.618;2024-02-28T09:35:20;94305.78;;;17.24;32.57
70902;BME280;58548;47.210;8.618;2024-02-28T09:37:46;94311.88;;;17.25;32.49
70902;BME280;58548;47.210;8.618;2024-02-28T09:40:14;94311.41;;;17.28;33.10
70902;BME280;58548;47.210;8.618;2024-02-28T09:42:40;94308.09;;;17.32;33.12
70902;BME280;58548;47.210;8.618;2024-02-28T09:45:08;94302.38;;;17.36;33.10
70902;BME280;58548;47.210;8.618;2024-02-28T09:47:35;94266.06;;;17.19;32.90
70902;BME280;58548;47.210;8.618;2024-02-28T09:50:04;94295.16;;;17.55;33.04
70902;BME280;58548;47.210;8.618;2024-02-28T09:52:34;94306.06;;;17.58;32.39
70902;BME280;58548;47.210;8.618;2024-02-28T09:55:05;94281.81;;;17.49;32.65
70902;BME280;58548;47.210;8.618;2024-02-28T09:57:35;94301.94;;;17.62;32.22
70902;BME280;58548;47.210;8.618;2024-02-28T10:00:06;94267.72;;;17.44;32.57
70902;BME280;58548;47.210;8.618;2024-02-28T10:02:33;94303.78;;;17.62;32.39
70902;BME280;58548;47.210;8.618;2024-02-28T10:05:01;94273.69;;;17.51;32.95
70902;BME280;58548;47.210;8.618;2024-02-28T10:07:27;94290.34;;;17.63;32.69
70902;BME280;58548;47.210;8.618;2024-02-28T10:09:53;94309.53;;;17.83;32.14
70902;BME280;58548;47.210;8.618;2024-02-28T10:12:21;94275.66;;;17.68;31.84
70902;BME280;58548;47.210;8.618;2024-02-28T10:14:49;94302.97;;;17.73;31.92
70902;BME280;58548;47.210;8.618;2024-02-28T10:17:17;94266.44;;;17.58;31.58
70902;BME280;58548;47.210;8.618;2024-02-28T10:19:43;94304.16;;;17.89;32.22
70902;BME280;58548;47.210;8.618;2024-02-28T10:22:09;94289.56;;;17.75;31.43
70902;BME280;58548;47.210;8.618;2024-02-28T10:24:39;94276.22;;;17.70;31.51
70902;BME280;58548;47.210;8.618;2024-02-28T10:27:10;94276.22;;;17.70;31.83
70902;BME280;58548;47.210;8.618;2024-02-28T10:29:38;94305.28;;;17.93;31.71
70902;BME280;58548;47.210;8.618;2024-02-28T10:32:04;94272.09;;;17.74;32.01
70902;BME280;58548;47.210;8.618;2024-02-28T10:34:31;94287.84;;;17.92;31.62
70902;BME280;58548;47.210;8.618;2024-02-28T10:36:58;94302.31;;;18.02;32.10
70902;BME280;58548;47.210;8.618;2024-02-28T10:39:26;94256.72;;;17.59;31.96
70902;BME280;58548;47.210;8.618;2024-02-28T10:41:56;94265.44;;;17.83;31.95
70902;BME280;58548;47.210;8.618;2024-02-28T10:44:27;94295.91;;;18.21;31.34
70902;BME280;58548;47.210;8.618;2024-02-28T10:46:57;94254.88;;;18.07;31.64
70902;BME280;58548;47.210;8.618;2024-02-28T10:49:23;94300.91;;;18.47;31.51
70902;BME280;58548;47.210;8.618;2024-02-28T10:51:49;94298.47;;;18.45;31.32
70902;BME280;58548;47.210;8.618;2024-02-28T10:54:21;94288.59;;;18.52;31.42
70902;BME280;58548;47.210;8.618;2024-02-28T10:56:55;94303.38;;;18.65;31.31
70902;BME280;58548;47.210;8.618;2024-02-28T10:59:25;94287.44;;;18.48;30.96
70902;BME280;58548;47.210;8.618;2024-02-28T11:01:59;94297.66;;;18.57;30.65
70902;BME280;58548;47.210;8.618;2024-02-28T11:04:28;94302.38;;;18.54;31.10
70902;BME280;58548;47.210;8.618;2024-02-28T11:06:55;94297.88;;;18.55;31.17
70902;BME280;58548;47.210;8.618;2024-02-28T11:09:25;94279.38;;;18.55;30.87
70902;BME280;58548;47.210;8.618;2024-02-28T11:11:52;94306.47;;;18.74;30.81
70902;BME280;58548;47.210;8.618;2024-02-28T11:14:19;94290.03;;;18.72;31.03
70902;BME280;58548;47.210;8.618;2024-02-28T11:16:48;94300.31;;;18.86;30.63
70902;BME280;58548;47.210;8.618;2024-02-28T11:19:28;94291.91;;;18.89;30.10
70902;BME280;58548;47.210;8.618;2024-02-28T11:21:58;94302.03;;;18.92;30.43
70902;BME280;58548;47.210;8.618;2024-02-28T11:24:33;94288.78;;;18.92;30.48
70902;BME280;58548;47.210;8.618;2024-02-28T11:26:59;94294.31;;;19.02;29.95
70902;BME280;58548;47.210;8.618;2024-02-28T11:29:27;94296.63;;;18.87;30.36
70902;BME280;58548;47.210;8.618;2024-02-28T11:31:55;94307.78;;;18.89;30.73
70902;BME280;58548;47.210;8.618;2024-02-28T11:34:25;94301.38;;;18.84;30.09
70902;BME280;58548;47.210;8.618;2024-02-28T11:36:55;94270.81;;;18.65;30.62
70902;BME280;58548;47.210;8.618;2024-02-28T11:39:25;94292.53;;;18.79;30.39
70902;BME280;58548;47.210;8.618;2024-02-28T11:41:55;94302.97;;;18.86;30.46
70902;BME280;58548;47.210;8.618;2024-02-28T11:44:21;94294.47;;;18.83;30.85
70902;BME280;58548;47.210;8.618;2024-02-28T11:46:48;94301.28;;;18.79;29.98
70902;BME280;58548;47.210;8.618;2024-02-28T11:49:15;94292.19;;;18.75;30.57
70902;BME280;58548;47.210;8.618;2024-02-28T11:51:44;94285.31;;;18.74;30.67
70902;BME280;58548;47.210;8.618;2024-02-28T11:54:15;94294.47;;;18.83;30.59
70902;BME280;58548;47.210;8.618;2024-02-28T11:56:41;94298.16;;;18.82;30.34
70902;BME280;58548;47.210;8.618;2024-02-28T11:59:11;94305.06;;;18.83;30.27
70902;BME280;58548;47.210;8.618;2024-02-28T12:01:40;94299.19;;;18.81;30.98
70902;BME280;58548;47.210;8.618;2024-02-28T12:04:06;94299.09;;;18.76;30.42
70902;BME280;58548;47.210;8.618;2024-02-28T12:06:37;94304.50;;;18.81;30.05
70902;BME280;58548;47.210;8.618;2024-02-28T12:09:04;94304.75;;;18.68;30.25
70902;BME280;58548;47.210;8.618;2024-02-28T12:11:35;94303.75;;;18.57;30.25
70902;BME280;58548;47.210;8.618;2024-02-28T12:14:09;94286.88;;;18.34;30.94
70902;BME280;58548;47.210;8.618;2024-02-28T12:16:39;94304.44;;;18.52;31.27
70902;BME280;58548;47.210;8.618;2024-02-28T12:19:10;94304.00;;;18.56;31.38
70902;BME280;58548;47.210;8.618;2024-02-28T12:21:42;94306.78;;;18.49;30.94
70902;BME280;58548;47.210;8.618;2024-02-28T12:24:11;94309.06;;;18.45;31.16
70902;BME280;58548;47.210;8.618;2024-02-28T12:26:38;94289.09;;;18.26;30.76
70902;BME280;58548;47.210;8.618;2024-02-28T12:29:07;94312.88;;;18.37;30.87
70902;BME280;58548;47.210;8.618;2024-02-28T12:31:36;94304.16;;;18.37;31.35
70902;BME280;58548;47.210;8.618;2024-02-28T12:34:02;94292.31;;;18.28;31.59
70902;BME280;58548;47.210;8.618;2024-02-28T12:36:31;94289.00;;;18.32;31.44
70902;BME280;58548;47.210;8.618;2024-02-28T12:38:58;94300.94;;;18.35;31.45
70902;BME280;58548;47.210;8.618;2024-02-28T12:41:26;94305.03;;;18.43;31.69
70902;BME280;58548;47.210;8.618;2024-02-28T12:43:54;94303.69;;;18.40;31.21
70902;BME280;58548;47.210;8.618;2024-02-28T12:46:23;94298.47;;;18.45;31.91
70902;BME280;58548;47.210;8.618;2024-02-28T12:48:48;94286.81;;;18.29;31.47
70902;BME280;58548;47.210;8.618;2024-02-28T12:54:08;94317.22;;;18.44;31.37
70902;BME280;58548;47.210;8.618;2024-02-28T12:56:38;94317.47;;;18.42;31.23
70902;BME280;58548;47.210;8.618;2024-02-28T12:59:09;94300.81;;;18.30;32.07
70902;BME280;58548;47.210;8.618;2024-02-28T13:01:35;94283.34;;;18.17;31.99
70902;BME280;58548;47.210;8.618;2024-02-28T13:04:04;94305.19;;;18.24;31.94
70902;BME280;58548;47.210;8.618;2024-02-28T13:06:30;94282.78;;;18.03;32.31